createdAt,value
2022-08-10T00:01:38.084Z,100690.19
2022-08-10T00:07:08.444Z,100685.34
2022-08-10T00:12:54.317Z,100683.78
2022-08-10T00:18:35.947Z,100673.94
2022-08-10T00:24:07.125Z,100676.75
2022-08-10T00:29:36.246Z,100676.34
2022-08-10T00:35:05.678Z,100679.78
2022-08-10T00:40:37.789Z,100684.91
2022-08-10T00:46:07.002Z,100692.78
2022-08-10T00:51:40.425Z,100696.16
2022-08-10T00:57:18.814Z,100688.78
2022-08-10T01:02:47.821Z,100695.53
2022-08-10T01:08:31.597Z,100697.00
2022-08-10T01:14:10.649Z,100689.97
2022-08-10T01:19:54.062Z,100696.94
2022-08-10T01:26:10.540Z,100699.28
2022-08-10T01:31:35.148Z,100689.09
2022-08-10T01:37:08.130Z,100694.41
2022-08-10T01:42:38.613Z,100697.56
2022-08-10T01:48:32.189Z,100700.72
2022-08-10T01:54:04.068Z,100698.00
2022-08-10T01:59:40.397Z,100694.22
2022-08-10T02:05:12.868Z,100697.13
2022-08-10T02:10:46.423Z,100696.69
2022-08-10T02:16:18.063Z,100700.03
2022-08-10T02:22:34.995Z,100695.91
2022-08-10T02:27:41.824Z,100699.03
2022-08-10T02:33:11.837Z,100698.25
2022-08-10T02:38:59.205Z,100697.47
2022-08-10T02:45:19.058Z,100703.00
2022-08-10T02:50:29.530Z,100700.31
2022-08-10T02:56:06.113Z,100712.41
2022-08-10T03:01:39.233Z,100711.34
2022-08-10T03:07:12.852Z,100723.56
2022-08-10T03:12:44.421Z,100714.75
2022-08-10T03:18:15.478Z,100716.44
2022-08-10T03:23:46.547Z,100714.22
2022-08-10T03:29:27.704Z,100715.06
2022-08-10T03:34:58.216Z,100724.22
2022-08-10T03:40:44.908Z,100718.09
2022-08-10T03:46:18.300Z,100718.34
2022-08-10T03:51:49.281Z,100715.31
2022-08-10T03:57:18.177Z,100718.09
2022-08-10T04:02:49.567Z,100720.84
2022-08-10T04:08:19.275Z,100717.53
2022-08-10T04:13:47.906Z,100716.88
2022-08-10T04:19:19.988Z,100717.41
2022-08-10T04:24:52.993Z,100713.97
2022-08-10T04:30:22.134Z,100704.34
2022-08-10T04:35:53.577Z,100704.22
2022-08-10T04:41:23.547Z,100703.19
2022-08-10T04:46:58.211Z,100705.28
2022-08-10T04:52:30.073Z,100708.50
2022-08-10T04:57:59.063Z,100702.78
2022-08-10T05:03:28.370Z,100698.59
2022-08-10T05:08:59.478Z,100710.72
2022-08-10T05:14:29.190Z,100700.91
2022-08-10T05:20:04.954Z,100699.88
2022-08-10T05:25:38.012Z,100694.78
2022-08-10T05:31:07.082Z,100685.41
2022-08-10T05:36:35.866Z,100691.53
2022-08-10T05:42:06.823Z,100683.38
2022-08-10T05:48:55.304Z,100682.06
2022-08-10T05:53:59.871Z,100678.13
2022-08-10T05:59:16.419Z,100687.78
2022-08-10T06:05:08.601Z,100685.75
2022-08-10T06:12:23.187Z,100686.78
2022-08-10T06:16:29.948Z,100669.53
2022-08-10T06:22:01.718Z,100670.94
2022-08-10T06:27:34.824Z,100666.06
2022-08-10T06:33:08.246Z,100662.78
2022-08-10T06:38:40.706Z,100659.47
2022-08-10T06:44:12.525Z,100656.66
2022-08-10T06:49:46.374Z,100664.88
2022-08-10T06:55:18.675Z,100654.09
2022-08-10T07:00:48.892Z,100648.09
2022-08-10T07:06:21.761Z,100657.06
2022-08-10T07:11:53.121Z,100646.84
2022-08-10T07:17:24.506Z,100674.78
2022-08-10T07:23:01.437Z,100659.97
2022-08-10T07:28:48.314Z,100662.91
2022-08-10T07:34:29.238Z,100667.19
2022-08-10T07:40:04.596Z,100662.16
2022-08-10T07:45:36.632Z,100653.19
2022-08-10T07:51:08.565Z,100654.47
2022-08-10T07:56:49.027Z,100650.47
2022-08-10T08:02:24.879Z,100655.91
2022-08-10T08:07:57.424Z,100657.66
2022-08-10T08:13:29.642Z,100650.16
2022-08-10T08:19:26.789Z,100639.44
2022-08-10T08:24:52.496Z,100637.31
2022-08-10T08:30:27.047Z,100642.25
2022-08-10T08:35:58.604Z,100631.97
2022-08-10T08:42:00.280Z,100619.19
2022-08-10T08:48:04.088Z,100619.78
2022-08-10T08:54:02.314Z,100606.31
2022-08-10T08:59:53.122Z,100598.00
2022-08-10T09:05:58.442Z,100598.53
2022-08-10T09:11:39.740Z,100597.94
2022-08-10T09:17:18.112Z,100599.81
2022-08-10T09:22:57.937Z,100609.34
2022-08-10T09:28:32.106Z,100591.22
2022-08-10T09:36:23.686Z,100591.50
2022-08-10T09:40:48.540Z,100585.81
2022-08-10T09:46:06.175Z,100592.34
2022-08-10T09:51:47.984Z,100595.69
2022-08-10T09:57:44.444Z,100586.47
2022-08-10T10:03:25.822Z,100580.25
2022-08-10T10:09:10.707Z,100585.44
2022-08-10T10:15:24.929Z,100584.50
2022-08-10T10:21:06.570Z,100573.06
2022-08-10T10:26:43.894Z,100570.81
2022-08-10T10:32:19.829Z,100573.31
2022-08-10T10:38:01.779Z,100569.03
2022-08-10T10:43:45.999Z,100567.13
2022-08-10T10:49:28.140Z,100581.53
2022-08-10T10:55:06.073Z,100574.28
2022-08-10T11:00:43.571Z,100571.16
2022-08-10T11:06:39.730Z,100568.88
2022-08-10T11:12:19.718Z,100558.97
2022-08-10T11:18:00.376Z,100552.44
2022-08-10T11:23:40.403Z,100551.56
2022-08-10T11:29:17.764Z,100547.50
2022-08-10T11:35:11.750Z,100539.06
2022-08-10T11:40:50.392Z,100538.31
2022-08-10T11:46:28.656Z,100532.69
2022-08-10T11:52:01.765Z,100530.72
2022-08-10T11:57:53.897Z,100520.47
2022-08-10T12:03:23.722Z,100527.16
2022-08-10T12:10:05.375Z,100521.53
2022-08-10T12:14:51.622Z,100510.78
2022-08-10T12:20:28.797Z,100500.34
2022-08-10T12:26:07.568Z,100495.38
2022-08-10T12:31:44.243Z,100495.56
2022-08-10T12:37:27.966Z,100493.38
2022-08-10T12:43:12.807Z,100495.13
2022-08-10T12:53:47.655Z,100484.75
2022-08-10T12:59:17.949Z,100487.78
2022-08-10T13:04:50.617Z,100481.97
2022-08-10T13:10:49.779Z,100481.81
2022-08-10T13:16:22.323Z,100476.78
2022-08-10T13:21:53.117Z,100482.19
2022-08-10T13:28:01.159Z,100471.59
2022-08-10T13:34:41.632Z,100475.34
2022-08-10T13:39:20.315Z,100468.63
2022-08-10T13:44:54.873Z,100471.91
2022-08-10T13:50:33.483Z,100472.16
2022-08-10T13:56:05.424Z,100468.78
2022-08-10T14:01:36.901Z,100468.41
2022-08-10T14:07:06.859Z,100466.25
2022-08-10T14:12:38.723Z,100460.09
2022-08-10T14:18:10.518Z,100465.97
2022-08-10T14:23:52.083Z,100461.72
2022-08-10T14:29:25.282Z,100454.34
2022-08-10T14:36:16.406Z,100452.28
2022-08-10T14:40:54.605Z,100456.41
2022-08-10T14:46:28.226Z,100452.84
2022-08-10T14:52:04.330Z,100444.94
2022-08-10T14:58:19.246Z,100443.50
2022-08-10T15:03:58.788Z,100453.41
2022-08-10T15:09:20.982Z,100458.50
2022-08-10T15:14:53.491Z,100451.09
2022-08-10T15:20:26.154Z,100444.00
2022-08-10T15:25:59.393Z,100458.34
2022-08-10T15:31:32.299Z,100455.16
2022-08-10T15:37:39.655Z,100453.72
2022-08-10T15:43:25.169Z,100453.03
2022-08-10T15:49:00.934Z,100463.19
2022-08-10T15:54:33.205Z,100459.47
2022-08-10T16:00:10.048Z,100464.59
2022-08-10T16:06:00.868Z,100462.53
2022-08-10T16:11:42.097Z,100461.94
2022-08-10T16:17:15.326Z,100461.41
2022-08-10T16:22:44.463Z,100461.19
2022-08-10T16:28:23.233Z,100466.31
2022-08-10T16:33:57.672Z,100475.38
2022-08-10T16:39:59.172Z,100475.25
2022-08-10T16:45:21.864Z,100479.34
2022-08-10T16:50:55.979Z,100483.31
2022-08-10T16:56:31.095Z,100483.19
2022-08-10T17:02:02.658Z,100475.50
2022-08-10T17:07:34.705Z,100488.31
2022-08-10T17:13:06.299Z,100481.53
2022-08-10T17:18:39.448Z,100482.91
2022-08-10T17:24:11.446Z,100489.88
2022-08-10T17:29:57.879Z,100499.38
2022-08-10T17:35:36.427Z,100501.13
2022-08-10T17:41:12.513Z,100499.63
2022-08-10T17:46:45.212Z,100502.31
2022-08-10T17:52:21.930Z,100502.75
2022-08-10T17:58:01.772Z,100497.56
2022-08-10T18:03:36.846Z,100497.28
2022-08-10T18:09:12.041Z,100494.41
2022-08-10T18:14:46.314Z,100490.84
2022-08-10T18:20:20.126Z,100502.03
2022-08-10T18:25:49.607Z,100489.09
2022-08-10T18:31:21.178Z,100496.63
2022-08-10T18:36:52.367Z,100495.03
2022-08-10T18:42:27.732Z,100488.56
2022-08-10T18:48:02.644Z,100493.66
2022-08-10T18:53:35.740Z,100486.84
2022-08-10T18:59:17.619Z,100476.19
2022-08-10T19:05:04.721Z,100485.56
2022-08-10T19:10:58.739Z,100486.72
2022-08-10T19:16:36.888Z,100472.34
2022-08-10T19:22:10.233Z,100473.81
2022-08-10T19:27:57.721Z,100468.59
2022-08-10T19:33:37.243Z,100469.38
2022-08-10T19:39:19.443Z,100465.63
2022-08-10T19:44:59.040Z,100460.22
2022-08-10T19:50:33.970Z,100468.25
2022-08-10T19:56:33.239Z,100461.53
2022-08-10T20:02:04.881Z,100463.81
2022-08-10T20:07:43.836Z,100458.91
2022-08-10T20:13:22.535Z,100444.50
2022-08-10T20:18:58.930Z,100445.31
2022-08-10T20:24:31.310Z,100446.63
2022-08-10T20:30:05.820Z,100438.41
2022-08-10T20:35:48.507Z,100438.06
2022-08-10T20:41:25.522Z,100438.22
2022-08-10T20:47:03.124Z,100439.38
2022-08-10T20:52:34.445Z,100435.09
2022-08-10T20:58:26.439Z,100433.44
2022-08-10T21:04:13.230Z,100420.34
2022-08-10T21:09:56.544Z,100425.72
2022-08-10T21:15:41.794Z,100413.13
2022-08-10T21:21:41.935Z,100407.34
2022-08-10T21:33:29.964Z,100388.16
2022-08-10T21:39:11.136Z,100384.38
2022-08-10T21:45:09.109Z,100386.66
2022-08-10T21:51:06.074Z,100387.28
2022-08-10T21:56:59.701Z,100381.34
2022-08-10T22:02:50.982Z,100373.97
2022-08-10T22:08:44.363Z,100381.31
2022-08-10T22:14:42.252Z,100383.09
2022-08-10T22:20:33.413Z,100378.81
2022-08-10T22:26:28.931Z,100372.41
2022-08-10T22:31:29.220Z,100399.66
2022-08-10T22:32:25.877Z,100361.94
2022-08-10T22:38:23.373Z,100356.66
2022-08-10T22:44:16.133Z,100356.50
2022-08-10T22:49:51.474Z,100360.03
2022-08-10T22:55:43.241Z,100363.38
2022-08-10T23:01:38.181Z,100365.09
2022-08-10T23:07:21.260Z,100353.59
2022-08-10T23:12:57.519Z,100356.50
2022-08-10T23:18:51.489Z,100354.47
2022-08-10T23:24:30.021Z,100354.09
2022-08-10T23:30:10.237Z,100340.19
2022-08-10T23:36:31.497Z,100343.25
2022-08-10T23:41:40.122Z,100342.25
2022-08-10T23:47:10.414Z,100340.81
2022-08-10T23:52:40.281Z,100337.22
2022-08-10T23:58:31.893Z,100346.59
